Time;durP1;ratioP1;P1;durP2;ratioP2;P2;SDS_P1;SDS_P2;PMS_P1;PMS_P2;Temp;Humidity;BMP_temperature;BMP_pressure;BME280_temperature;BME280_humidity;BME280_pressure;Samples;Min_cycle;Max_cycle;Signal;HPM_P1;HPM_P2
2024/01/13 05:05:11;;;;;;;0.40;0.40;;;-1.90;99.90;;;;;;6121596;22;20232;-64
2024/01/13 05:07:38;;;;;;;0.43;0.43;;;-2.00;99.90;;;;;;5014088;28;20299;-65
2024/01/13 05:10:07;;;;;;;0.30;0.30;;;-2.00;99.90;;;;;;5014811;28;20172;-63
2024/01/13 05:12:33;;;;;;;0.40;0.40;;;-1.90;99.90;;;;;;5014846;28;20170;-63
2024/01/13 05:14:58;;;;;;;0.67;0.67;;;-1.80;99.90;;;;;;5013365;28;20560;-65
2024/01/13 05:17:24;;;;;;;0.40;0.40;;;-1.80;99.90;;;;;;5014763;28;20178;-64
2024/01/13 05:19:49;;;;;;;0.40;0.40;;;-1.80;99.90;;;;;;5014717;28;20167;-64
2024/01/13 05:22:15;;;;;;;0.40;0.40;;;-1.70;99.90;;;;;;5014586;28;20180;-65
2024/01/13 05:24:42;;;;;;;0.40;0.40;;;-1.70;99.90;;;;;;5014220;28;20175;-64
2024/01/13 05:27:08;;;;;;;0.40;0.40;;;-1.70;99.90;;;;;;5014503;28;20186;-62
2024/01/13 05:29:33;;;;;;;0.40;0.40;;;-1.90;99.90;;;;;;5014505;28;20167;-65
2024/01/13 05:31:59;;;;;;;0.40;0.40;;;-1.90;99.90;;;;;;5014660;28;20420;-67
2024/01/13 05:34:24;;;;;;;0.40;0.40;;;-1.90;99.90;;;;;;5013943;28;20203;-66
2024/01/13 05:36:50;;;;;;;0.30;0.30;;;-1.90;99.90;;;;;;5013178;28;20238;-66
2024/01/13 05:39:16;;;;;;;0.40;0.40;;;-1.90;99.90;;;;;;4996615;28;20188;-66
2024/01/13 05:41:41;;;;;;;0.40;0.40;;;-1.90;99.90;;;;;;5014540;28;20177;-64
2024/01/13 05:44:07;;;;;;;0.30;0.30;;;-1.80;99.90;;;;;;5014253;28;20169;-65
2024/01/13 05:46:32;;;;;;;0.50;0.50;;;-1.70;99.90;;;;;;5014057;28;20214;-64
2024/01/13 05:49:01;;;;;;;0.53;0.53;;;-1.70;99.90;;;;;;5014272;28;20628;-64
2024/01/13 05:51:28;;;;;;;0.43;0.43;;;-1.70;99.90;;;;;;5014168;28;20523;-65
2024/01/13 05:53:54;;;;;;;0.40;0.40;;;-1.70;99.90;;;;;;5014160;28;20287;-65
2024/01/13 05:56:19;;;;;;;0.40;0.40;;;-1.70;99.90;;;;;;5013513;28;20282;-65
2024/01/13 05:58:45;;;;;;;0.40;0.40;;;-1.70;99.90;;;;;;5014084;28;20170;-64
2024/01/13 06:01:10;;;;;;;0.50;0.50;;;-1.80;99.90;;;;;;5014189;28;20644;-66
2024/01/13 06:03:36;;;;;;;0.40;0.40;;;-1.80;99.90;;;;;;5014133;28;20257;-65
2024/01/13 06:06:02;;;;;;;0.33;0.33;;;-1.80;99.90;;;;;;4995701;28;20613;-65
2024/01/13 06:08:29;;;;;;;0.40;0.40;;;-1.80;99.90;;;;;;5013870;28;20177;-63
2024/01/13 06:10:54;;;;;;;0.40;0.40;;;-1.80;99.90;;;;;;5014005;28;20221;-65
2024/01/13 06:13:20;;;;;;;0.40;0.40;;;-1.80;99.90;;;;;;5013848;28;20646;-63
2024/01/13 06:15:45;;;;;;;0.40;0.40;;;-1.90;99.90;;;;;;5013274;28;20560;-65
2024/01/13 06:18:11;;;;;;;0.40;0.40;;;-1.90;99.90;;;;;;5013794;28;20169;-63
2024/01/13 06:20:36;;;;;;;0.70;0.70;;;-1.80;99.90;;;;;;5013743;28;20528;-63
2024/01/13 06:23:02;;;;;;;0.40;0.40;;;-1.80;99.90;;;;;;5013731;28;20167;-64
2024/01/13 06:25:28;;;;;;;0.40;0.40;;;-1.70;99.90;;;;;;5013279;28;20190;-64
2024/01/13 06:27:54;;;;;;;0.40;0.40;;;-1.70;99.90;;;;;;5013573;28;20189;-65
2024/01/13 06:30:20;;;;;;;0.40;0.40;;;-1.70;99.90;;;;;;5013576;28;20170;-65
2024/01/13 06:32:45;;;;;;;0.40;0.40;;;-1.60;99.90;;;;;;5013529;28;20328;-64
2024/01/13 06:35:11;;;;;;;0.30;0.30;;;-1.60;99.90;;;;;;5013031;28;20209;-64
2024/01/13 06:37:37;;;;;;;0.40;0.40;;;-1.60;99.90;;;;;;5013378;28;20198;-66
2024/01/13 06:40:04;;;;;;;0.40;0.40;;;-1.60;99.90;;;;;;5013575;28;20184;-63
2024/01/13 06:42:30;;;;;;;0.43;0.43;;;-1.60;99.90;;;;;;5013317;28;20572;-65
2024/01/13 06:44:55;;;;;;;0.50;0.50;;;-1.60;99.90;;;;;;5012878;28;20178;-65
2024/01/13 06:47:21;;;;;;;0.33;0.33;;;-1.60;99.90;;;;;;5013276;28;20174;-64
2024/01/13 06:49:48;;;;;;;0.30;0.30;;;-1.60;99.90;;;;;;5013608;28;20178;-64
2024/01/13 06:52:13;;;;;;;0.30;0.30;;;-1.50;99.90;;;;;;5013363;28;20207;-63
2024/01/13 06:54:39;;;;;;;0.30;0.30;;;-1.60;99.90;;;;;;4995330;28;20198;-65
2024/01/13 06:57:05;;;;;;;0.40;0.40;;;-1.60;99.90;;;;;;5013339;28;20193;-64
2024/01/13 06:59:31;;;;;;;0.40;0.40;;;-1.50;99.90;;;;;;5013271;28;20229;-65
2024/01/13 07:01:56;;;;;;;0.60;0.60;;;-1.50;99.90;;;;;;5013689;28;20170;-64
2024/01/13 07:04:22;;;;;;;0.30;0.30;;;-1.50;99.90;;;;;;5012910;28;20169;-65
2024/01/13 07:06:47;;;;;;;0.40;0.40;;;-1.50;99.90;;;;;;5013043;28;20207;-64
2024/01/13 07:09:13;;;;;;;0.30;0.30;;;-1.50;99.90;;;;;;5013319;28;20177;-64
2024/01/13 07:11:39;;;;;;;0.40;0.40;;;-1.50;99.90;;;;;;5013248;28;20178;-65
2024/01/13 07:14:05;;;;;;;0.30;0.30;;;-1.50;99.90;;;;;;5013142;28;20405;-64
2024/01/13 07:16:32;;;;;;;0.40;0.40;;;-1.50;99.90;;;;;;5012734;28;20279;-65
2024/01/13 07:18:57;;;;;;;0.40;0.40;;;-1.50;99.90;;;;;;5013021;28;20174;-63
2024/01/13 07:21:23;;;;;;;0.30;0.30;;;-1.50;99.90;;;;;;5013454;28;20562;-65
2024/01/13 07:23:48;;;;;;;0.30;0.30;;;-1.60;99.90;;;;;;5013140;28;20194;-64
2024/01/13 07:26:14;;;;;;;0.40;0.40;;;-1.50;99.90;;;;;;4995007;28;20195;-66
2024/01/13 07:28:40;;;;;;;0.40;0.40;;;-1.50;99.90;;;;;;5013268;28;20175;-65
2024/01/13 07:31:06;;;;;;;0.40;0.40;;;-1.40;99.90;;;;;;5012873;28;20417;-65
2024/01/13 07:33:32;;;;;;;0.30;0.30;;;-1.50;99.90;;;;;;5013241;28;20497;-66
2024/01/13 07:35:57;;;;;;;0.40;0.40;;;-1.50;99.90;;;;;;5012533;28;20503;-66
2024/01/13 07:38:23;;;;;;;0.40;0.40;;;-1.50;99.90;;;;;;5014199;28;20249;-65
2024/01/13 07:40:49;;;;;;;0.40;0.40;;;-1.50;99.90;;;;;;5016484;28;20224;-66
2024/01/13 07:43:15;;;;;;;0.40;0.40;;;-1.50;99.90;;;;;;5016834;28;20171;-63
2024/01/13 07:45:40;;;;;;;0.33;0.33;;;-1.40;99.90;;;;;;5016081;28;20732;-64
2024/01/13 07:48:06;;;;;;;0.40;0.40;;;-1.40;99.90;;;;;;5016562;28;20197;-65
2024/01/13 07:50:32;;;;;;;0.40;0.40;;;-1.40;99.90;;;;;;5016379;28;20428;-64
2024/01/13 07:52:59;;;;;;;0.40;0.40;;;-1.40;99.90;;;;;;5016375;28;20170;-64
2024/01/13 07:55:24;;;;;;;0.40;0.40;;;-1.40;99.90;;;;;;5015703;28;20449;-65
2024/01/13 07:57:50;;;;;;;0.40;0.40;;;-1.30;99.90;;;;;;5017257;28;20257;-64
2024/01/13 08:00:16;;;;;;;0.40;0.40;;;-1.30;99.90;;;;;;5016241;28;20173;-63
2024/01/13 08:02:41;;;;;;;0.40;0.40;;;-1.30;99.90;;;;;;4998466;28;20174;-65
2024/01/13 08:05:07;;;;;;;0.37;0.37;;;-1.30;99.90;;;;;;5015409;28;20543;-67
2024/01/13 08:07:32;;;;;;;0.40;0.40;;;-1.30;99.90;;;;;;5015802;28;20271;-67
2024/01/13 08:09:58;;;;;;;0.40;0.40;;;-1.30;99.90;;;;;;5016417;28;20179;-67
2024/01/13 08:12:24;;;;;;;0.40;0.40;;;-1.30;99.90;;;;;;5015847;28;20179;-64
2024/01/13 08:14:50;;;;;;;0.40;0.40;;;-1.30;99.90;;;;;;5015649;28;20176;-66
2024/01/13 08:17:15;;;;;;;0.40;0.40;;;-1.30;99.90;;;;;;5015878;28;20528;-66
2024/01/13 08:19:41;;;;;;;0.60;0.60;;;-1.30;99.90;;;;;;5021929;28;20240;-65
2024/01/13 08:22:07;;;;;;;0.30;0.30;;;-1.30;99.90;;;;;;5035549;28;20624;-64
2024/01/13 08:24:33;;;;;;;0.35;0.35;;;-1.30;99.90;;;;;;5027530;28;20261;-67
2024/01/13 08:26:58;;;;;;;0.40;0.40;;;-1.30;99.90;;;;;;5014885;28;20611;-65
2024/01/13 08:29:24;;;;;;;1.63;1.63;;;-1.30;99.90;;;;;;5014809;28;20177;-66
2024/01/13 08:31:50;;;;;;;0.40;0.40;;;-1.20;99.90;;;;;;5013988;28;20170;-65
2024/01/13 08:34:16;;;;;;;0.38;0.38;;;-1.20;99.90;;;;;;5014619;28;20239;-66
2024/01/13 08:36:42;;;;;;;0.38;0.38;;;-1.20;99.90;;;;;;4997325;28;20248;-65
2024/01/13 08:39:08;;;;;;;0.30;0.30;;;-1.30;99.90;;;;;;4997591;28;20583;-67
2024/01/13 08:41:34;;;;;;;0.40;0.40;;;-1.20;99.90;;;;;;5015393;28;20223;-67
2024/01/13 08:44:00;;;;;;;0.30;0.30;;;-1.20;99.90;;;;;;5015301;28;20179;-68
2024/01/13 08:46:26;;;;;;;0.43;0.43;;;-1.20;99.90;;;;;;5014994;28;20326;-66
2024/01/13 08:48:52;;;;;;;0.30;0.30;;;-1.20;99.90;;;;;;5015005;28;20172;-64
2024/01/13 08:51:18;;;;;;;0.47;0.47;;;-1.20;99.90;;;;;;5015261;28;20167;-65
2024/01/13 08:53:44;;;;;;;0.90;0.90;;;-1.20;99.90;;;;;;5015035;28;20421;-64
2024/01/13 08:56:10;;;;;;;0.30;0.30;;;-1.20;99.90;;;;;;4996923;28;20229;-65
2024/01/13 08:58:36;;;;;;;0.40;0.40;;;-1.20;99.90;;;;;;5014913;28;20174;-64
2024/01/13 09:01:02;;;;;;;0.38;0.38;;;-1.20;99.90;;;;;;5015033;28;20159;-65
2024/01/13 09:03:28;;;;;;;0.50;0.50;;;-1.30;99.90;;;;;;5015076;28;20232;-67
2024/01/13 09:05:55;;;;;;;0.38;0.38;;;-1.30;99.90;;;;;;5014307;28;20487;-65
2024/01/13 09:08:20;;;;;;;0.30;0.30;;;-1.30;99.90;;;;;;5014566;28;20189;-65
2024/01/13 09:10:46;;;;;;;0.30;0.30;;;-1.30;99.90;;;;;;5014676;28;20233;-64
2024/01/13 09:13:11;;;;;;;0.40;0.40;;;-1.30;99.90;;;;;;5014778;28;20249;-65
2024/01/13 09:15:37;;;;;;;0.40;0.40;;;-1.30;99.90;;;;;;5014265;28;20198;-64
2024/01/13 09:18:03;;;;;;;0.40;0.40;;;-1.20;99.90;;;;;;5014660;28;20200;-65
2024/01/13 09:20:29;;;;;;;0.38;0.38;;;-1.20;99.90;;;;;;5014545;28;20668;-64
2024/01/13 09:22:55;;;;;;;0.30;0.30;;;-1.20;99.90;;;;;;5014561;28;20256;-65
2024/01/13 09:25:21;;;;;;;0.73;0.73;;;-1.10;99.90;;;;;;5014172;28;20683;-65
2024/01/13 09:27:46;;;;;;;0.30;0.30;;;-1.10;99.90;;;;;;5012213;28;20269;-65
2024/01/13 09:30:12;;;;;;;0.43;0.43;;;-1.10;99.90;;;;;;5013003;28;20187;-64
2024/01/13 09:32:38;;;;;;;0.50;0.50;;;-1.00;99.90;;;;;;5013327;28;20177;-64
2024/01/13 09:35:04;;;;;;;0.40;0.40;;;-1.00;99.90;;;;;;5013479;28;20488;-63
2024/01/13 09:37:30;;;;;;;0.40;0.40;;;-1.00;99.90;;;;;;4996353;28;20700;-64
2024/01/13 09:39:56;;;;;;;0.40;0.40;;;-1.00;99.90;;;;;;5013594;28;20174;-64
2024/01/13 09:42:29;;;;;;;0.30;0.30;;;-1.00;99.90;;;;;;4996045;28;20265;-64
2024/01/13 09:44:55;;;;;;;0.40;0.40;;;-1.00;99.90;;;;;;5013191;28;20417;-64
2024/01/13 09:47:21;;;;;;;0.30;0.30;;;-1.00;99.90;;;;;;4995782;28;20169;-64
2024/01/13 09:49:50;;;;;;;0.30;0.30;;;-0.90;99.90;;;;;;4996684;28;20204;-63
2024/01/13 09:52:16;;;;;;;0.40;0.40;;;-0.90;99.90;;;;;;5014519;28;20408;-64
2024/01/13 09:54:46;;;;;;;0.35;0.35;;;-0.90;99.90;;;;;;5013800;28;20169;-64
2024/01/13 09:57:12;;;;;;;0.32;0.32;;;-1.00;99.90;;;;;;5013970;28;20704;-64
2024/01/13 09:59:40;;;;;;;0.40;0.40;;;-0.90;99.90;;;;;;5013836;28;20183;-64
2024/01/13 10:02:12;;;;;;;0.40;0.40;;;-0.90;99.90;;;;;;5000351;28;20425;-61
2024/01/13 10:04:37;;;;;;;0.43;0.43;;;-0.90;99.90;;;;;;5015747;28;20166;-63
2024/01/13 10:07:04;;;;;;;0.30;0.30;;;-0.80;99.90;;;;;;5033408;28;20267;-62
2024/01/13 10:09:32;;;;;;;0.38;0.38;;;-0.90;99.90;;;;;;5022315;28;20185;-62
2024/01/13 10:11:58;;;;;;;0.30;0.30;;;-0.90;99.90;;;;;;5013307;28;20175;-62
2024/01/13 10:14:24;;;;;;;0.40;0.40;;;-0.90;99.90;;;;;;5010827;28;20265;-62
2024/01/13 10:16:50;;;;;;;0.30;0.30;;;-0.80;99.90;;;;;;5013165;28;20338;-62
2024/01/13 10:19:16;;;;;;;0.37;0.37;;;-0.80;99.90;;;;;;5013708;28;20398;-62
2024/01/13 10:21:42;;;;;;;0.30;0.30;;;-0.80;99.90;;;;;;5013535;28;20519;-62
2024/01/13 10:24:07;;;;;;;0.40;0.40;;;-0.70;99.90;;;;;;5012954;28;20186;-63
2024/01/13 10:26:33;;;;;;;0.40;0.40;;;-0.70;99.90;;;;;;4995526;28;20201;-62
2024/01/13 10:28:59;;;;;;;0.30;0.30;;;-0.70;99.90;;;;;;5013480;28;20178;-64
2024/01/13 10:31:25;;;;;;;0.40;0.40;;;-0.70;99.90;;;;;;5013474;28;20259;-61
2024/01/13 10:33:52;;;;;;;0.60;0.60;;;-0.70;99.90;;;;;;5013330;28;20199;-63
2024/01/13 10:36:24;;;;;;;0.43;0.43;;;-0.70;99.90;;;;;;5012542;28;20289;-63
2024/01/13 10:38:50;;;;;;;0.40;0.40;;;-0.60;99.90;;;;;;4995732;28;20177;-62
2024/01/13 10:41:16;;;;;;;0.30;0.30;;;-0.60;99.90;;;;;;5013514;28;20183;-62
2024/01/13 10:43:46;;;;;;;0.40;0.40;;;-0.60;99.90;;;;;;5013437;28;20182;-62
2024/01/13 10:46:13;;;;;;;0.43;0.43;;;-0.60;99.90;;;;;;4998378;28;20221;-62
2024/01/13 10:48:45;;;;;;;0.40;0.40;;;-0.60;99.90;;;;;;5033225;28;20178;-63
2024/01/13 10:51:40;;;;;;;0.40;0.40;;;-0.60;99.90;;;;;;5015311;28;20184;-62
2024/01/13 10:54:07;;;;;;;0.30;0.30;;;-0.50;99.90;;;;;;4995864;28;20202;-65
2024/01/13 10:56:35;;;;;;;0.50;0.50;;;-0.50;99.90;;;;;;5012308;28;21015;-63
2024/01/13 10:59:02;;;;;;;0.30;0.30;;;-0.50;99.90;;;;;;5012799;28;20179;-63
2024/01/13 11:01:27;;;;;;;0.30;0.30;;;-0.40;99.90;;;;;;5003025;28;20639;-63
2024/01/13 11:03:54;;;;;;;0.40;0.40;;;-0.40;99.90;;;;;;5015004;28;20185;-63
2024/01/13 11:06:23;;;;;;;0.40;0.40;;;-0.30;99.90;;;;;;5032723;28;20635;-63
2024/01/13 11:08:50;;;;;;;0.43;0.43;;;-0.30;99.90;;;;;;5033148;28;20178;-63
2024/01/13 11:11:24;;;;;;;0.43;0.43;;;-0.30;99.90;;;;;;5033087;28;20174;-64
2024/01/13 11:14:02;;;;;;;0.38;0.38;;;-0.30;99.90;;;;;;5018813;28;20181;-63
2024/01/13 11:16:31;;;;;;;0.40;0.40;;;-0.30;99.90;;;;;;5007919;28;20709;-64
2024/01/13 11:18:58;;;;;;;0.40;0.40;;;-0.30;99.90;;;;;;5017573;28;20185;-65
2024/01/13 11:21:33;;;;;;;0.43;0.43;;;-0.30;99.90;;;;;;4999188;28;20250;-65
2024/01/13 11:24:07;;;;;;;0.40;0.40;;;-0.40;99.90;;;;;;4998774;28;20197;-65
2024/01/13 11:26:44;;;;;;;0.40;0.40;;;-0.30;99.90;;;;;;5015952;28;20194;-65
2024/01/13 11:29:28;;;;;;;0.40;0.40;;;-0.40;99.90;;;;;;5016539;28;20250;-63
2024/01/13 11:31:58;;;;;;;0.40;0.40;;;-0.40;99.90;;;;;;5016616;28;20185;-65
2024/01/13 11:34:26;;;;;;;0.40;0.40;;;-0.40;99.90;;;;;;5016329;28;20175;-64
2024/01/13 11:36:56;;;;;;;0.40;0.40;;;-0.30;99.90;;;;;;4992112;28;20755;-63
2024/01/13 11:39:25;;;;;;;0.40;0.40;;;-0.30;99.90;;;;;;5016136;28;20580;-64
2024/01/13 11:41:55;;;;;;;0.30;0.30;;;-0.20;99.90;;;;;;5014479;28;20171;-64
2024/01/13 11:44:44;;;;;;;0.30;0.30;;;-0.20;99.90;;;;;;5014409;28;20532;-64
2024/01/13 11:47:12;;;;;;;0.38;0.38;;;-0.10;99.90;;;;;;5007231;28;20218;-64
2024/01/13 11:49:45;;;;;;;0.30;0.30;;;-0.10;99.90;;;;;;5016021;28;20174;-64
2024/01/13 11:52:28;;;;;;;0.50;0.50;;;-0.10;99.90;;;;;;4997854;28;20185;-64
2024/01/13 11:54:54;;;;;;;0.63;0.63;;;-0.10;99.90;;;;;;4975126;28;20194;-64
2024/01/13 11:57:20;;;;;;;0.40;0.40;;;-0.10;99.90;;;;;;5013729;28;20244;-63
2024/01/13 11:59:46;;;;;;;0.40;0.40;;;-0.10;99.90;;;;;;5016376;28;20182;-63
2024/01/13 12:02:22;;;;;;;0.30;0.30;;;-0.10;99.90;;;;;;5015061;28;20653;-64
2024/01/13 12:04:49;;;;;;;0.47;0.47;;;-0.10;99.90;;;;;;5015110;28;20598;-64
2024/01/13 12:07:15;;;;;;;1.23;1.13;;;-0.10;99.90;;;;;;4997680;28;20193;-66
2024/01/13 12:09:41;;;;;;;0.40;0.40;;;0.00;99.90;;;;;;5015501;28;20715;-65
2024/01/13 12:12:07;;;;;;;0.40;0.40;;;0.10;99.90;;;;;;4996826;28;20480;-64
2024/01/13 12:14:34;;;;;;;0.30;0.30;;;0.10;99.90;;;;;;4999915;28;20179;-64
2024/01/13 12:17:01;;;;;;;0.40;0.40;;;0.20;99.90;;;;;;5018958;28;20544;-64
2024/01/13 12:19:38;;;;;;;0.40;0.40;;;0.20;99.90;;;;;;5015873;28;20167;-64
2024/01/13 12:22:05;;;;;;;0.30;0.30;;;0.10;99.90;;;;;;5015496;28;20261;-65
2024/01/13 12:24:32;;;;;;;0.47;0.47;;;0.10;99.90;;;;;;5014753;28;20633;-65
2024/01/13 12:26:58;;;;;;;0.40;0.40;;;0.10;99.90;;;;;;5014657;28;20226;-64
2024/01/13 12:29:29;;;;;;;0.40;0.40;;;0.20;99.90;;;;;;4997186;28;20592;-65
2024/01/13 12:31:55;;;;;;;0.30;0.30;;;0.20;99.90;;;;;;4997529;28;20182;-63
2024/01/13 12:34:21;;;;;;;0.30;0.30;;;0.20;99.90;;;;;;5014171;28;20201;-64
2024/01/13 12:36:46;;;;;;;0.40;0.40;;;0.20;99.90;;;;;;5015171;28;20206;-62
2024/01/13 12:39:15;;;;;;;0.30;0.30;;;0.20;99.90;;;;;;5015426;28;20174;-64
2024/01/13 12:41:40;;;;;;;0.30;0.30;;;0.10;99.90;;;;;;5014509;28;20175;-63
2024/01/13 12:44:06;;;;;;;0.40;0.40;;;0.20;99.90;;;;;;5014968;28;20258;-63
2024/01/13 12:46:38;;;;;;;0.93;0.77;;;0.20;99.90;;;;;;5015267;28;20206;-64
2024/01/13 12:49:16;;;;;;;0.45;0.45;;;0.20;99.90;;;;;;5015477;28;20759;-64
2024/01/13 12:51:46;;;;;;;0.30;0.30;;;0.20;99.90;;;;;;5015538;28;20521;-64
2024/01/13 12:54:16;;;;;;;0.40;0.40;;;0.20;99.90;;;;;;5014957;28;20173;-66
2024/01/13 12:56:43;;;;;;;0.32;0.32;;;0.20;99.90;;;;;;5013870;28;20545;-63
2024/01/13 12:59:09;;;;;;;0.40;0.40;;;0.20;99.90;;;;;;5015648;28;20170;-63
2024/01/13 13:01:35;;;;;;;0.40;0.40;;;0.20;99.90;;;;;;5015281;28;20174;-63
2024/01/13 13:04:01;;;;;;;0.30;0.30;;;0.20;99.90;;;;;;5015296;28;20497;-64
2024/01/13 13:06:29;;;;;;;0.40;0.40;;;0.20;99.90;;;;;;5014389;28;20819;-63
2024/01/13 13:08:57;;;;;;;1.25;1.15;;;0.20;99.90;;;;;;4997402;28;20202;-64
2024/01/13 13:11:22;;;;;;;0.30;0.30;;;0.30;99.90;;;;;;5014945;28;20179;-64
2024/01/13 13:13:49;;;;;;;0.40;0.40;;;0.30;99.90;;;;;;5015124;28;20522;-64
2024/01/13 13:16:15;;;;;;;0.30;0.30;;;0.30;99.90;;;;;;5014522;28;20205;-65
2024/01/13 13:18:41;;;;;;;0.40;0.40;;;0.30;99.90;;;;;;5014915;28;20171;-63
2024/01/13 13:21:07;;;;;;;0.40;0.40;;;0.30;99.90;;;;;;5014891;28;20162;-65
2024/01/13 13:23:33;;;;;;;0.40;0.40;;;0.30;99.90;;;;;;5007754;28;20200;-64
2024/01/13 13:25:58;;;;;;;0.30;0.30;;;0.30;99.90;;;;;;5033646;28;20201;-64
2024/01/13 13:28:24;;;;;;;0.30;0.30;;;0.20;99.90;;;;;;5034397;28;20635;-63
2024/01/13 13:30:50;;;;;;;2.25;1.30;;;0.20;99.90;;;;;;5034402;28;20533;-64
2024/01/13 13:33:17;;;;;;;0.40;0.40;;;0.30;99.90;;;;;;5034041;28;20177;-62
2024/01/13 13:35:42;;;;;;;0.40;0.40;;;0.30;99.90;;;;;;5032654;28;20194;-65
2024/01/13 13:38:08;;;;;;;0.67;0.67;;;0.30;99.90;;;;;;5033756;28;20174;-63
2024/01/13 13:40:36;;;;;;;0.30;0.30;;;0.30;99.90;;;;;;5016289;28;20343;-64
2024/01/13 13:43:03;;;;;;;0.30;0.30;;;0.30;99.90;;;;;;5034193;28;20408;-63
2024/01/13 13:45:29;;;;;;;0.30;0.30;;;0.30;99.90;;;;;;5016012;28;20201;-64
2024/01/13 13:47:56;;;;;;;0.30;0.30;;;0.20;99.90;;;;;;5034140;28;20174;-63
2024/01/13 13:50:23;;;;;;;0.43;0.43;;;0.10;99.90;;;;;;5016125;28;20413;-64
2024/01/13 13:52:49;;;;;;;0.30;0.30;;;0.10;99.90;;;;;;5032090;28;20170;-64
2024/01/13 13:55:14;;;;;;;0.40;0.40;;;0.10;99.90;;;;;;5033411;28;20252;-62
2024/01/13 13:57:41;;;;;;;0.87;0.87;;;0.10;99.90;;;;;;5033742;28;20404;-62
2024/01/13 14:00:07;;;;;;;0.40;0.40;;;0.10;99.90;;;;;;5033846;28;20166;-64
2024/01/13 14:02:33;;;;;;;3.10;1.02;;;0.10;99.90;;;;;;5033778;28;20178;-63
2024/01/13 14:04:59;;;;;;;0.30;0.30;;;0.10;99.90;;;;;;5033136;28;20477;-63
2024/01/13 14:07:26;;;;;;;0.40;0.40;;;0.10;99.90;;;;;;5033283;28;20182;-64
2024/01/13 14:09:51;;;;;;;0.60;0.60;;;0.10;99.90;;;;;;5033932;28;20162;-62
2024/01/13 14:12:17;;;;;;;0.50;0.50;;;0.00;99.90;;;;;;5033860;28;20308;-64
2024/01/13 14:14:43;;;;;;;0.30;0.30;;;0.00;99.90;;;;;;5033390;28;20750;-64
2024/01/13 14:17:09;;;;;;;0.40;0.40;;;-0.10;99.90;;;;;;5015268;28;20484;-65
2024/01/13 14:19:35;;;;;;;0.52;0.52;;;-0.10;99.90;;;;;;5013865;28;20162;-64
2024/01/13 14:22:01;;;;;;;0.37;0.37;;;0.00;99.90;;;;;;5013617;28;20165;-65
2024/01/13 14:24:26;;;;;;;0.50;0.50;;;0.00;99.90;;;;;;5013381;28;20470;-62
2024/01/13 14:26:52;;;;;;;0.30;0.30;;;0.00;99.90;;;;;;5013642;28;20229;-63
2024/01/13 14:29:18;;;;;;;0.40;0.40;;;0.00;99.90;;;;;;5013833;28;20659;-64
2024/01/13 14:31:44;;;;;;;0.77;0.77;;;0.00;99.90;;;;;;5013468;28;20422;-64
2024/01/13 14:34:09;;;;;;;0.47;0.47;;;0.00;99.90;;;;;;5013309;28;20632;-64
2024/01/13 14:36:37;;;;;;;0.40;0.40;;;-0.10;99.90;;;;;;5013361;28;20233;-64
2024/01/13 14:39:02;;;;;;;0.45;0.45;;;-0.10;99.90;;;;;;5013334;28;20221;-64
2024/01/13 14:41:28;;;;;;;0.40;0.40;;;-0.10;99.90;;;;;;4996036;28;20170;-64
2024/01/13 14:43:54;;;;;;;0.30;0.30;;;-0.10;99.90;;;;;;5014096;28;20464;-64
2024/01/13 14:46:20;;;;;;;0.30;0.30;;;-0.10;99.90;;;;;;5028266;28;20198;-64
2024/01/13 14:48:45;;;;;;;0.40;0.40;;;-0.10;99.90;;;;;;5032652;28;20178;-66
2024/01/13 14:51:22;;;;;;;0.30;0.30;;;-0.20;99.90;;;;;;5032990;28;20651;-64
2024/01/13 14:53:47;;;;;;;0.38;0.38;;;-0.20;99.90;;;;;;5015494;28;20205;-64
2024/01/13 14:56:13;;;;;;;0.30;0.30;;;-0.10;99.90;;;;;;5032719;28;20278;-63
2024/01/13 14:58:39;;;;;;;0.43;0.43;;;-0.10;99.90;;;;;;5033187;28;20179;-64
2024/01/13 15:01:05;;;;;;;0.40;0.40;;;-0.10;99.90;;;;;;5032893;28;20182;-63
2024/01/13 15:03:30;;;;;;;0.40;0.40;;;-0.10;99.90;;;;;;5033164;28;20405;-65
2024/01/13 15:05:56;;;;;;;0.40;0.40;;;-0.10;99.90;;;;;;5032778;28;20279;-64
2024/01/13 15:08:21;;;;;;;0.40;0.40;;;-0.20;99.90;;;;;;5033337;28;20257;-64
2024/01/13 15:10:48;;;;;;;0.40;0.40;;;-0.20;99.90;;;;;;5033248;28;20166;-64
2024/01/13 15:13:13;;;;;;;0.40;0.40;;;-0.10;99.90;;;;;;5033141;28;20174;-62
2024/01/13 15:15:40;;;;;;;0.80;0.80;;;-0.20;99.90;;;;;;5018245;28;20213;-65
2024/01/13 15:18:06;;;;;;;0.43;0.43;;;-0.20;99.90;;;;;;5013222;28;20209;-64
2024/01/13 15:20:32;;;;;;;0.30;0.30;;;-0.20;99.90;;;;;;5013386;28;20167;-64
2024/01/13 15:22:57;;;;;;;0.40;0.40;;;-0.30;99.90;;;;;;5013266;28;20178;-61
2024/01/13 15:25:24;;;;;;;0.40;0.40;;;-0.30;99.90;;;;;;5012620;28;20660;-64
2024/01/13 15:27:54;;;;;;;0.50;0.50;;;-0.20;99.90;;;;;;5013144;28;20174;-63
2024/01/13 15:30:23;;;;;;;0.40;0.40;;;-0.20;99.90;;;;;;5012917;28;20183;-63
2024/01/13 15:32:52;;;;;;;0.40;0.40;;;-0.30;99.90;;;;;;5012870;28;20224;-63
2024/01/13 15:35:18;;;;;;;0.55;0.55;;;-0.30;99.90;;;;;;5012409;28;20199;-64
2024/01/13 15:37:44;;;;;;;0.50;0.50;;;-0.30;99.90;;;;;;5013151;28;20173;-63
2024/01/13 15:40:15;;;;;;;0.50;0.50;;;-0.20;99.90;;;;;;5026640;28;20192;-64
2024/01/13 15:42:41;;;;;;;0.30;0.30;;;-0.20;99.90;;;;;;5032887;28;20174;-64
2024/01/13 15:45:08;;;;;;;0.60;0.60;;;-0.20;99.90;;;;;;5032288;28;20185;-63
2024/01/13 15:47:35;;;;;;;0.40;0.40;;;-0.20;99.90;;;;;;5032682;28;20284;-64
2024/01/13 15:50:00;;;;;;;0.50;0.50;;;-0.20;99.90;;;;;;5032585;28;20174;-64
2024/01/13 15:52:26;;;;;;;0.30;0.30;;;-0.30;99.90;;;;;;5032645;28;20177;-63
2024/01/13 15:54:52;;;;;;;0.40;0.40;;;-0.30;99.90;;;;;;5031708;28;20174;-65
2024/01/13 15:57:17;;;;;;;0.40;0.40;;;-0.30;99.90;;;;;;5032557;28;20206;-64
2024/01/13 15:59:43;;;;;;;0.40;0.40;;;-0.40;99.90;;;;;;5016370;28;20414;-64
2024/01/13 16:02:10;;;;;;;0.40;0.40;;;-0.40;99.90;;;;;;5035955;28;20241;-66
2024/01/13 16:04:36;;;;;;;0.30;0.30;;;-0.50;99.90;;;;;;5035833;28;20212;-63
2024/01/13 16:07:02;;;;;;;0.47;0.47;;;-0.50;99.90;;;;;;5029680;28;20210;-62
2024/01/13 16:09:28;;;;;;;0.30;0.30;;;-0.50;99.90;;;;;;5016180;28;20177;-64
2024/01/13 16:11:55;;;;;;;0.30;0.30;;;-0.50;99.90;;;;;;5016191;28;20229;-63
2024/01/13 16:14:20;;;;;;;0.47;0.47;;;-0.60;99.90;;;;;;5016053;28;20254;-64
2024/01/13 16:16:46;;;;;;;0.40;0.40;;;-0.60;99.90;;;;;;5012145;28;20361;-64
2024/01/13 16:19:12;;;;;;;0.40;0.40;;;-0.60;99.90;;;;;;5014857;28;20171;-64
2024/01/13 16:21:41;;;;;;;0.30;0.30;;;-0.70;99.90;;;;;;5016117;28;20400;-63
2024/01/13 16:24:09;;;;;;;0.40;0.40;;;-0.70;99.90;;;;;;5015769;28;20189;-64
2024/01/13 16:26:36;;;;;;;0.40;0.40;;;-0.80;99.90;;;;;;5015574;28;20208;-62
2024/01/13 16:29:02;;;;;;;0.40;0.40;;;-0.90;99.90;;;;;;5015827;28;20243;-63
2024/01/13 16:31:28;;;;;;;0.35;0.35;;;-0.90;99.90;;;;;;5015939;28;20628;-63
2024/01/13 16:33:54;;;;;;;0.40;0.40;;;-1.00;99.90;;;;;;5015795;28;20215;-65
2024/01/13 16:36:21;;;;;;;0.40;0.40;;;-1.10;99.90;;;;;;5015054;28;20449;-64
2024/01/13 16:38:47;;;;;;;0.60;0.60;;;-1.10;99.90;;;;;;5015699;28;20166;-64
2024/01/13 16:41:12;;;;;;;0.40;0.40;;;-1.10;99.90;;;;;;5014967;28;20175;-64
2024/01/13 16:43:40;;;;;;;0.40;0.40;;;-1.10;99.90;;;;;;5015329;28;20481;-65
2024/01/13 16:46:08;;;;;;;0.40;0.40;;;-1.10;99.90;;;;;;5014855;28;20208;-63
2024/01/13 16:48:35;;;;;;;0.75;0.75;;;-1.10;99.90;;;;;;5015421;28;20637;-65
2024/01/13 16:51:00;;;;;;;0.40;0.40;;;-1.10;99.90;;;;;;5015277;28;20177;-65
2024/01/13 16:53:26;;;;;;;0.30;0.30;;;-1.10;99.90;;;;;;5015010;28;20258;-64
2024/01/13 16:55:51;;;;;;;0.30;0.30;;;-1.10;99.90;;;;;;5014701;28;20615;-65
2024/01/13 16:58:17;;;;;;;0.43;0.43;;;-1.10;99.90;;;;;;5015203;28;20173;-62
2024/01/13 17:00:43;;;;;;;0.40;0.40;;;-1.10;99.90;;;;;;5030186;28;20188;-65
2024/01/13 17:03:08;;;;;;;0.40;0.40;;;-1.10;99.90;;;;;;5035219;28;20245;-63
2024/01/13 17:05:34;;;;;;;0.70;0.70;;;-1.10;99.90;;;;;;5034278;28;20197;-65
2024/01/13 17:07:59;;;;;;;0.40;0.40;;;-1.10;99.90;;;;;;5034935;28;20267;-63
2024/01/13 17:10:25;;;;;;;0.30;0.30;;;-1.20;99.90;;;;;;5034823;28;20228;-63
2024/01/13 17:12:50;;;;;;;0.40;0.40;;;-1.20;99.90;;;;;;5035043;28;20178;-65
2024/01/13 17:15:17;;;;;;;0.40;0.40;;;-1.20;99.90;;;;;;5033762;28;20196;-64
2024/01/13 17:17:43;;;;;;;0.40;0.40;;;-1.20;99.90;;;;;;5016931;28;20187;-66
2024/01/13 17:20:12;;;;;;;0.50;0.50;;;-1.20;99.90;;;;;;5034611;28;20173;-65
2024/01/13 17:22:38;;;;;;;0.40;0.40;;;-1.20;99.90;;;;;;5034788;28;20492;-66
2024/01/13 17:25:05;;;;;;;0.60;0.60;;;-1.20;99.90;;;;;;5034012;28;20192;-65
2024/01/13 17:27:31;;;;;;;0.40;0.40;;;-1.20;99.90;;;;;;5034450;28;20405;-65
2024/01/13 17:29:57;;;;;;;0.40;0.40;;;-1.20;99.90;;;;;;5034245;28;20205;-63
2024/01/13 17:32:23;;;;;;;0.47;0.47;;;-1.30;99.90;;;;;;5034205;28;20169;-65
2024/01/13 17:34:48;;;;;;;0.30;0.30;;;-1.30;99.90;;;;;;5033880;28;20172;-62
2024/01/13 17:37:14;;;;;;;0.50;0.50;;;-1.30;99.90;;;;;;5022599;28;20285;-65
2024/01/13 17:39:39;;;;;;;0.40;0.40;;;-1.30;99.90;;;;;;5014082;28;20509;-63
2024/01/13 17:42:05;;;;;;;0.33;0.33;;;-1.30;99.90;;;;;;5013011;28;20183;-64
2024/01/13 17:44:31;;;;;;;0.50;0.50;;;-1.30;99.90;;;;;;5013704;28;20224;-65
2024/01/13 17:46:56;;;;;;;0.30;0.30;;;-1.20;99.90;;;;;;5014174;28;20190;-65
2024/01/13 17:49:22;;;;;;;0.50;0.50;;;-1.30;99.90;;;;;;5014228;28;20174;-65